createdAt,value
2022-11-29T00:02:04.721Z,25.50
2022-11-29T00:04:33.110Z,25.50
2022-11-29T00:07:01.375Z,25.50
2022-11-29T00:09:29.602Z,25.50
2022-11-29T00:11:57.964Z,25.40
2022-11-29T00:14:27.696Z,25.50
2022-11-29T00:16:59.484Z,25.50
2022-11-29T00:19:28.199Z,25.50
2022-11-29T00:21:56.567Z,25.60
2022-11-29T00:24:24.743Z,25.80
2022-11-29T00:26:53.097Z,25.70
2022-11-29T00:29:21.720Z,25.60
2022-11-29T00:31:50.026Z,25.50
2022-11-29T00:34:18.170Z,25.40
2022-11-29T00:36:46.442Z,25.30
2022-11-29T00:39:14.863Z,25.30
2022-11-29T00:41:43.367Z,25.30
2022-11-29T00:44:16.729Z,25.20
2022-11-29T00:46:48.931Z,25.20
2022-11-29T00:49:17.778Z,25.50
2022-11-29T00:51:46.991Z,25.40
2022-11-29T00:54:15.333Z,25.20
2022-11-29T00:56:43.682Z,25.10
2022-11-29T00:59:11.983Z,25.10
2022-11-29T01:01:40.288Z,25.00
2022-11-29T01:04:08.434Z,25.00
2022-11-29T01:06:36.739Z,25.00
2022-11-29T01:09:05.983Z,25.00
2022-11-29T01:11:34.427Z,24.90
2022-11-29T01:14:04.075Z,25.20
2022-11-29T01:16:32.802Z,25.40
2022-11-29T01:19:01.204Z,25.30
2022-11-29T01:21:29.740Z,25.20
2022-11-29T01:23:58.041Z,25.20
2022-11-29T01:26:28.937Z,25.10
2022-11-29T01:28:58.669Z,25.10
2022-11-29T01:31:35.264Z,25.00
2022-11-29T01:34:05.549Z,25.00
2022-11-29T01:36:35.136Z,24.90
2022-11-29T01:39:05.677Z,25.00
2022-11-29T01:41:36.351Z,25.20
2022-11-29T01:44:06.618Z,25.40
2022-11-29T01:46:38.151Z,25.20
2022-11-29T01:49:13.430Z,25.00
2022-11-29T01:51:45.383Z,25.00
2022-11-29T01:54:14.464Z,24.80
2022-11-29T01:56:43.790Z,24.70
2022-11-29T01:59:16.388Z,24.70
2022-11-29T02:01:44.786Z,24.70
2022-11-29T02:04:13.197Z,24.70
2022-11-29T02:06:43.059Z,24.80
2022-11-29T02:09:23.218Z,25.00
2022-11-29T02:12:03.798Z,25.00
2022-11-29T02:14:58.143Z,25.00
2022-11-29T02:17:52.616Z,24.90
2022-11-29T02:21:05.470Z,24.90
2022-11-29T02:23:45.539Z,24.80
2022-11-29T02:26:22.702Z,24.80
2022-11-29T02:29:09.313Z,24.70
2022-11-29T02:32:03.202Z,24.70
2022-11-29T02:34:52.698Z,24.80
2022-11-29T02:37:44.055Z,24.90
2022-11-29T02:40:36.031Z,24.80
2022-11-29T02:43:22.625Z,24.70
2022-11-29T02:45:50.897Z,24.70
2022-11-29T02:48:53.651Z,24.60
2022-11-29T02:51:25.022Z,24.60
2022-11-29T02:54:14.532Z,24.60
2022-11-29T02:57:02.722Z,24.60
2022-11-29T03:00:07.957Z,24.50
2022-11-29T03:02:52.142Z,24.70
2022-11-29T03:05:49.595Z,24.80
2022-11-29T03:08:52.879Z,24.90
2022-11-29T03:11:38.764Z,24.70
2022-11-29T03:14:26.146Z,24.60
2022-11-29T03:17:09.389Z,24.60
2022-11-29T03:20:22.280Z,24.50
2022-11-29T03:23:02.698Z,24.50
2022-11-29T03:25:39.380Z,24.50
2022-11-29T03:28:18.527Z,24.50
2022-11-29T03:31:12.054Z,24.60
2022-11-29T03:33:59.544Z,24.80
2022-11-29T03:36:50.391Z,24.80
2022-11-29T03:39:49.576Z,24.70
2022-11-29T03:42:38.040Z,24.60
2022-11-29T03:45:09.279Z,24.50
2022-11-29T03:48:00.613Z,24.40
2022-11-29T03:50:36.953Z,24.40
2022-11-29T03:53:29.528Z,24.30
2022-11-29T03:56:00.325Z,24.30
2022-11-29T03:59:03.802Z,24.30
2022-11-29T04:01:50.393Z,24.50
2022-11-29T04:04:49.458Z,24.60
2022-11-29T04:07:54.596Z,24.50
2022-11-29T04:10:44.289Z,24.40
2022-11-29T04:13:24.938Z,24.30
2022-11-29T04:16:22.325Z,24.30
2022-11-29T04:19:11.871Z,24.20
2022-11-29T04:21:49.446Z,24.20
2022-11-29T04:24:42.481Z,24.20
2022-11-29T04:27:35.736Z,24.20
2022-11-29T04:30:13.626Z,24.40
2022-11-29T04:32:53.878Z,24.50
2022-11-29T04:35:30.022Z,24.40
2022-11-29T04:38:01.257Z,24.40
2022-11-29T04:40:47.933Z,24.30
2022-11-29T04:43:51.783Z,24.30
2022-11-29T04:46:47.697Z,24.20
2022-11-29T04:49:40.278Z,24.20
2022-11-29T04:52:27.818Z,24.20
2022-11-29T04:55:33.132Z,24.00
2022-11-29T04:58:13.486Z,24.30
2022-11-29T05:01:06.888Z,24.50
2022-11-29T05:03:55.440Z,24.30
2022-11-29T05:06:30.686Z,24.10
2022-11-29T05:09:20.837Z,24.00
2022-11-29T05:11:51.963Z,24.00
2022-11-29T05:14:32.324Z,24.00
2022-11-29T05:17:31.314Z,24.00
2022-11-29T05:20:17.292Z,24.00
2022-11-29T05:22:54.795Z,24.00
2022-11-29T05:25:23.026Z,24.10
2022-11-29T05:28:10.065Z,24.30
2022-11-29T05:31:00.149Z,24.20
2022-11-29T05:34:05.445Z,24.10
2022-11-29T05:36:41.506Z,24.10
2022-11-29T05:39:32.993Z,24.10
2022-11-29T05:42:32.926Z,24.00
2022-11-29T05:45:17.522Z,24.00
2022-11-29T05:48:13.813Z,24.00
2022-11-29T05:50:50.034Z,24.00
2022-11-29T05:53:36.780Z,23.90
2022-11-29T05:56:42.348Z,24.20
2022-11-29T05:59:32.694Z,24.40
2022-11-29T06:02:35.711Z,24.10
2022-11-29T06:05:17.908Z,24.00
2022-11-29T06:08:07.901Z,23.90
2022-11-29T06:10:40.490Z,23.90
2022-11-29T06:13:38.073Z,23.90
2022-11-29T06:16:34.917Z,23.80
2022-11-29T06:19:31.005Z,23.90
2022-11-29T06:22:20.868Z,23.90
2022-11-29T06:25:24.349Z,23.90
2022-11-29T06:28:14.094Z,24.20
2022-11-29T06:31:24.195Z,24.10
2022-11-29T06:34:02.922Z,24.00
2022-11-29T06:37:01.216Z,23.90
2022-11-29T06:39:29.982Z,23.90
2022-11-29T06:41:58.109Z,23.90
2022-11-29T06:44:26.840Z,23.90
2022-11-29T06:47:06.509Z,23.90
2022-11-29T06:50:07.285Z,23.80
2022-11-29T06:52:49.075Z,23.80
2022-11-29T06:55:43.262Z,24.00
2022-11-29T06:58:48.785Z,24.20
2022-11-29T07:01:24.443Z,24.10
2022-11-29T07:04:11.164Z,24.20
2022-11-29T07:06:39.827Z,24.20
2022-11-29T07:09:18.764Z,24.30
2022-11-29T07:11:48.533Z,24.40
2022-11-29T07:14:17.221Z,24.30
2022-11-29T07:17:26.285Z,24.40
2022-11-29T07:20:03.884Z,24.40
2022-11-29T07:22:38.226Z,24.20
2022-11-29T07:25:18.490Z,24.30
2022-11-29T07:28:23.563Z,24.40
2022-11-29T07:30:55.810Z,24.40
2022-11-29T07:33:49.985Z,24.40
2022-11-29T07:36:27.090Z,24.50
2022-11-29T07:39:13.752Z,24.90
2022-11-29T07:42:08.012Z,25.10
2022-11-29T07:45:12.029Z,25.30
2022-11-29T07:47:40.485Z,25.40
2022-11-29T07:50:09.328Z,25.80
2022-11-29T07:52:37.614Z,26.00
2022-11-29T07:55:06.547Z,26.20
2022-11-29T07:57:34.699Z,26.20
2022-11-29T08:00:03.225Z,28.20
2022-11-29T08:02:39.537Z,29.90
2022-11-29T08:05:09.235Z,29.00
2022-11-29T08:07:41.860Z,27.10
2022-11-29T08:10:15.714Z,26.10
2022-11-29T08:12:45.918Z,25.70
2022-11-29T08:15:14.506Z,25.50
2022-11-29T08:17:42.827Z,25.30
2022-11-29T08:20:12.338Z,25.70
2022-11-29T08:22:40.785Z,28.20
2022-11-29T08:25:10.314Z,32.10
2022-11-29T08:27:39.276Z,34.80
2022-11-29T08:30:08.571Z,34.30
2022-11-29T08:32:36.703Z,30.60
2022-11-29T08:35:05.062Z,28.50
2022-11-29T08:37:33.533Z,27.80
2022-11-29T08:40:01.841Z,28.30
2022-11-29T08:42:29.945Z,28.60
2022-11-29T08:44:58.199Z,27.40
2022-11-29T08:47:26.707Z,26.90
2022-11-29T08:49:55.295Z,26.60
2022-11-29T08:52:23.494Z,26.20
2022-11-29T08:54:51.951Z,26.10
2022-11-29T09:00:11.955Z,25.90
2022-11-29T09:02:40.120Z,25.80
2022-11-29T09:05:09.799Z,25.70
2022-11-29T09:07:38.719Z,25.40
2022-11-29T09:10:10.581Z,25.30
2022-11-29T09:12:40.218Z,25.30
2022-11-29T09:15:10.450Z,25.30
2022-11-29T09:17:38.676Z,25.30
2022-11-29T09:20:07.692Z,25.30
2022-11-29T09:22:36.106Z,25.30
2022-11-29T09:25:04.535Z,25.30
2022-11-29T09:27:33.044Z,25.70
2022-11-29T09:30:01.175Z,25.60
2022-11-29T09:32:29.382Z,25.50
2022-11-29T09:34:57.633Z,25.50
2022-11-29T09:37:25.848Z,25.50
2022-11-29T09:39:54.075Z,25.40
2022-11-29T09:42:56.762Z,25.40
2022-11-29T09:45:33.277Z,25.30
2022-11-29T09:48:28.954Z,25.20
2022-11-29T09:51:46.225Z,25.30
2022-11-29T09:54:36.134Z,25.30
2022-11-29T09:57:10.512Z,25.70
2022-11-29T09:59:46.908Z,25.80
2022-11-29T10:02:38.688Z,25.50
2022-11-29T10:05:17.774Z,25.60
2022-11-29T10:08:09.472Z,25.50
2022-11-29T10:10:46.605Z,25.40
2022-11-29T10:13:25.628Z,25.50
2022-11-29T10:16:25.825Z,25.50
2022-11-29T10:19:05.021Z,25.50
2022-11-29T10:21:39.226Z,25.50
2022-11-29T10:24:18.471Z,25.60
2022-11-29T10:26:47.552Z,25.90
2022-11-29T10:29:17.321Z,26.20
2022-11-29T10:31:47.965Z,26.40
2022-11-29T10:34:21.670Z,26.30
2022-11-29T10:36:57.150Z,26.40
2022-11-29T10:39:37.438Z,26.90
2022-11-29T10:42:08.848Z,27.00
2022-11-29T10:44:37.693Z,27.00
2022-11-29T10:47:10.673Z,27.00
2022-11-29T10:49:39.927Z,27.30
2022-11-29T10:52:21.942Z,27.60
2022-11-29T10:54:54.531Z,27.30
2022-11-29T10:57:23.977Z,27.70
2022-11-29T11:00:09.544Z,28.10
2022-11-29T11:02:38.559Z,28.30
2022-11-29T11:05:15.054Z,28.50
2022-11-29T11:07:43.844Z,28.60
2022-11-29T11:10:32.255Z,28.20
2022-11-29T11:13:07.250Z,28.20
2022-11-29T11:15:35.791Z,28.50
2022-11-29T11:18:07.525Z,28.30
2022-11-29T11:20:42.360Z,28.40
2022-11-29T11:23:30.532Z,28.60
2022-11-29T11:26:00.456Z,29.00
2022-11-29T11:28:37.287Z,29.60
2022-11-29T11:31:08.974Z,29.90
2022-11-29T11:33:41.324Z,30.10
2022-11-29T11:36:12.357Z,30.00
2022-11-29T11:38:54.096Z,29.70
2022-11-29T11:41:28.296Z,29.80
2022-11-29T11:44:00.302Z,29.80
2022-11-29T11:46:49.639Z,30.00
2022-11-29T11:49:36.402Z,29.80
2022-11-29T11:52:07.900Z,29.70
2022-11-29T11:54:37.531Z,30.10
2022-11-29T11:57:06.250Z,30.20
2022-11-29T11:59:34.957Z,30.40
2022-11-29T12:02:03.525Z,30.50
2022-11-29T12:04:36.454Z,30.00
2022-11-29T12:07:45.042Z,29.80
2022-11-29T12:10:23.214Z,29.80
2022-11-29T12:12:52.487Z,29.80
2022-11-29T12:15:27.875Z,29.70
2022-11-29T12:18:04.698Z,29.60
2022-11-29T12:21:05.991Z,29.60
2022-11-29T12:23:44.246Z,29.40
2022-11-29T12:26:41.185Z,29.40
2022-11-29T12:29:15.851Z,29.60
2022-11-29T12:31:52.912Z,29.50
2022-11-29T12:34:42.954Z,29.30
2022-11-29T12:37:37.656Z,29.20
2022-11-29T12:40:12.173Z,29.10
2022-11-29T12:42:46.989Z,29.00
2022-11-29T12:45:46.310Z,29.00
2022-11-29T12:48:23.867Z,29.00
2022-11-29T12:51:01.891Z,29.10
2022-11-29T12:54:15.307Z,29.10
2022-11-29T12:57:17.496Z,29.70
2022-11-29T13:00:01.841Z,30.40
2022-11-29T13:02:41.996Z,30.30
2022-11-29T13:05:33.265Z,30.40
2022-11-29T13:08:24.709Z,30.40
2022-11-29T13:10:59.333Z,30.30
2022-11-29T13:13:46.756Z,30.10
2022-11-29T13:16:26.337Z,30.10
2022-11-29T13:19:16.238Z,30.30
2022-11-29T13:22:10.892Z,30.20
2022-11-29T13:24:45.339Z,30.30
2022-11-29T13:27:23.885Z,30.30
2022-11-29T13:29:53.846Z,29.90
2022-11-29T13:32:32.340Z,29.50
2022-11-29T13:35:28.102Z,29.20
2022-11-29T13:38:07.903Z,29.20
2022-11-29T13:40:54.952Z,29.00
2022-11-29T13:43:57.173Z,28.90
2022-11-29T13:46:31.420Z,29.00
2022-11-29T13:49:00.023Z,29.20
2022-11-29T13:51:37.225Z,29.30
2022-11-29T13:54:31.321Z,29.40
2022-11-29T13:57:10.835Z,29.50
2022-11-29T13:59:47.121Z,29.50
2022-11-29T14:02:30.443Z,29.60
2022-11-29T14:04:59.099Z,30.00
2022-11-29T14:07:27.444Z,30.30
2022-11-29T14:10:28.628Z,30.20
2022-11-29T14:12:58.635Z,30.30
2022-11-29T14:15:30.080Z,30.70
2022-11-29T14:18:01.585Z,30.90
2022-11-29T14:20:29.877Z,31.20
2022-11-29T14:23:06.964Z,30.80
2022-11-29T14:25:51.572Z,30.90
2022-11-29T14:28:23.285Z,30.70
2022-11-29T14:30:56.249Z,30.70
2022-11-29T14:33:58.010Z,30.50
2022-11-29T14:36:39.217Z,30.20
2022-11-29T14:39:42.273Z,30.30
2022-11-29T14:42:22.658Z,31.10
2022-11-29T14:44:54.181Z,31.00
2022-11-29T14:47:27.801Z,31.00
2022-11-29T14:49:58.234Z,30.80
2022-11-29T14:52:38.377Z,30.50
2022-11-29T14:55:28.584Z,30.60
2022-11-29T14:58:02.789Z,30.70
2022-11-29T15:00:55.293Z,30.50
2022-11-29T15:03:35.238Z,30.60
2022-11-29T15:06:09.452Z,30.90
2022-11-29T15:09:09.415Z,30.90
2022-11-29T15:11:58.330Z,31.00
2022-11-29T15:14:40.763Z,30.90
2022-11-29T15:17:49.334Z,30.90
2022-11-29T15:20:54.990Z,30.60
2022-11-29T15:23:23.372Z,30.60
2022-11-29T15:26:00.994Z,30.50
2022-11-29T15:28:31.013Z,30.40
2022-11-29T15:31:09.674Z,30.80
2022-11-29T15:33:41.940Z,30.80
2022-11-29T15:37:02.895Z,30.60
2022-11-29T15:39:37.829Z,30.40
2022-11-29T15:42:12.539Z,30.20
2022-11-29T15:44:48.933Z,30.40
2022-11-29T15:47:25.853Z,30.40
2022-11-29T15:49:55.182Z,30.30
2022-11-29T15:52:34.186Z,30.30
2022-11-29T15:55:06.114Z,30.40
2022-11-29T15:57:41.549Z,30.50
2022-11-29T16:00:17.348Z,30.40
2022-11-29T16:03:02.732Z,30.30
2022-11-29T16:05:40.419Z,30.20
2022-11-29T16:08:17.188Z,30.20
2022-11-29T16:10:50.892Z,30.20
2022-11-29T16:13:40.544Z,30.00
2022-11-29T16:16:11.769Z,29.90
2022-11-29T16:18:42.701Z,30.30
2022-11-29T16:21:29.575Z,30.60
2022-11-29T16:23:58.753Z,30.20
2022-11-29T16:26:40.585Z,30.00
2022-11-29T16:29:29.286Z,29.80
2022-11-29T16:31:58.183Z,29.70
2022-11-29T16:34:31.327Z,29.60
2022-11-29T16:37:20.937Z,29.70
2022-11-29T16:39:52.237Z,30.00
2022-11-29T16:42:32.296Z,30.10
2022-11-29T16:45:07.556Z,30.10
2022-11-29T16:47:53.422Z,29.60
2022-11-29T16:50:23.186Z,29.40
2022-11-29T16:52:56.313Z,29.30
2022-11-29T16:55:25.584Z,29.30
2022-11-29T16:57:53.927Z,29.20
2022-11-29T17:00:35.585Z,29.30
2022-11-29T17:03:04.120Z,29.60
2022-11-29T17:05:32.483Z,29.70
2022-11-29T17:08:01.591Z,29.70
2022-11-29T17:10:30.010Z,29.50
2022-11-29T17:12:58.546Z,29.40
2022-11-29T17:15:26.932Z,29.40
2022-11-29T17:17:55.081Z,29.40
2022-11-29T17:20:23.550Z,29.30
2022-11-29T17:22:51.689Z,29.20
2022-11-29T17:26:15.477Z,29.40
2022-11-29T17:28:45.415Z,29.20
2022-11-29T17:31:16.547Z,29.10
2022-11-29T17:33:45.193Z,29.10
2022-11-29T17:36:15.944Z,29.10
2022-11-29T17:38:45.688Z,29.40
2022-11-29T17:41:25.057Z,29.30
2022-11-29T17:43:55.376Z,29.00
2022-11-29T17:46:32.370Z,28.70
2022-11-29T17:49:03.184Z,28.50
2022-11-29T17:54:21.177Z,28.40
2022-11-29T17:56:49.917Z,28.40
2022-11-29T17:59:18.568Z,28.60
2022-11-29T18:01:47.476Z,28.80
2022-11-29T18:04:16.096Z,28.70
2022-11-29T18:06:45.127Z,28.50
2022-11-29T18:09:13.777Z,28.20
2022-11-29T18:11:48.068Z,28.10
2022-11-29T18:14:23.468Z,28.00
2022-11-29T18:16:52.624Z,27.90
2022-11-29T18:19:22.930Z,27.80
2022-11-29T18:21:51.765Z,27.90
2022-11-29T18:24:20.415Z,28.20
2022-11-29T18:26:49.186Z,28.40
2022-11-29T18:29:17.356Z,28.30
2022-11-29T18:31:47.011Z,27.90
2022-11-29T18:34:15.587Z,27.80
2022-11-29T18:36:48.897Z,27.70
2022-11-29T18:39:19.921Z,27.60
2022-11-29T18:41:51.244Z,27.50
2022-11-29T18:44:21.945Z,27.50
2022-11-29T18:46:50.572Z,27.60
2022-11-29T18:49:19.405Z,27.90
2022-11-29T18:51:48.830Z,28.10
2022-11-29T18:54:18.730Z,28.00
2022-11-29T18:56:47.480Z,27.70
2022-11-29T18:59:24.460Z,27.50
2022-11-29T19:01:53.055Z,27.50
2022-11-29T19:04:22.003Z,27.40
2022-11-29T19:06:50.543Z,27.40
2022-11-29T19:09:21.707Z,27.30
2022-11-29T19:11:51.235Z,27.20
2022-11-29T19:14:20.259Z,27.30
2022-11-29T19:16:49.885Z,27.40
2022-11-29T19:19:18.438Z,27.30
2022-11-29T19:21:47.291Z,27.20
2022-11-29T19:24:17.225Z,27.10
2022-11-29T19:26:47.549Z,27.00
2022-11-29T19:29:16.490Z,27.10
2022-11-29T19:31:44.769Z,27.00
2022-11-29T19:34:13.059Z,27.00
2022-11-29T19:36:42.244Z,27.20
2022-11-29T19:39:11.740Z,27.40
2022-11-29T19:41:40.217Z,27.40
2022-11-29T19:44:09.122Z,27.20
2022-11-29T19:46:47.666Z,27.10
2022-11-29T19:49:16.399Z,27.10
2022-11-29T19:51:44.852Z,27.00
2022-11-29T19:54:13.341Z,27.00
2022-11-29T19:56:41.885Z,26.90
2022-11-29T19:59:10.443Z,27.00
2022-11-29T20:01:41.883Z,27.30
2022-11-29T20:04:12.555Z,27.60
2022-11-29T20:06:41.685Z,27.50
2022-11-29T20:09:10.695Z,27.30
2022-11-29T20:11:39.198Z,27.20
2022-11-29T20:14:08.306Z,27.10
2022-11-29T20:16:37.021Z,27.10
2022-11-29T20:19:12.569Z,27.10
2022-11-29T20:21:47.225Z,27.00
2022-11-29T20:24:17.562Z,27.20
2022-11-29T20:26:48.790Z,27.30
2022-11-29T20:29:17.629Z,27.30
2022-11-29T20:31:50.743Z,27.20
2022-11-29T20:34:20.701Z,27.00
2022-11-29T20:37:13.721Z,27.00
2022-11-29T20:40:14.704Z,26.90
2022-11-29T20:43:03.600Z,26.90
2022-11-29T20:45:32.494Z,26.90
2022-11-29T20:48:23.098Z,26.90
2022-11-29T20:50:59.111Z,27.10
2022-11-29T20:53:35.353Z,27.20
2022-11-29T20:56:05.502Z,27.10
2022-11-29T20:58:34.671Z,27.00
2022-11-29T21:01:12.409Z,26.90
2022-11-29T21:03:41.477Z,26.90
2022-11-29T21:06:10.004Z,26.80
2022-11-29T21:08:38.644Z,26.80
2022-11-29T21:11:09.684Z,26.70
2022-11-29T21:13:38.457Z,26.80
2022-11-29T21:16:07.268Z,27.00
2022-11-29T21:18:36.286Z,27.10
2022-11-29T21:21:36.919Z,26.90
2022-11-29T21:24:05.401Z,26.70
2022-11-29T21:26:50.002Z,26.70
2022-11-29T21:29:23.184Z,26.70
2022-11-29T21:31:54.547Z,26.60
2022-11-29T21:34:23.149Z,26.60
2022-11-29T21:36:57.452Z,26.60
2022-11-29T21:39:32.513Z,26.60
2022-11-29T21:42:02.154Z,26.90
2022-11-29T21:44:30.634Z,27.00
2022-11-29T21:46:59.160Z,26.80
2022-11-29T21:49:27.705Z,26.70
2022-11-29T21:51:57.477Z,26.60
2022-11-29T21:54:30.428Z,26.60
2022-11-29T21:56:59.284Z,26.50
2022-11-29T21:59:27.777Z,26.50
2022-11-29T22:01:56.816Z,26.50
2022-11-29T22:04:25.222Z,26.50
2022-11-29T22:06:53.907Z,26.50
2022-11-29T22:09:22.327Z,26.70
2022-11-29T22:11:51.010Z,26.60
2022-11-29T22:14:19.690Z,26.50
2022-11-29T22:16:56.352Z,26.50
2022-11-29T22:19:34.794Z,26.40
2022-11-29T22:22:05.449Z,26.40
2022-11-29T22:24:36.747Z,26.50
2022-11-29T22:27:05.484Z,26.50
2022-11-29T22:29:34.121Z,26.50
2022-11-29T22:32:02.570Z,26.70
2022-11-29T22:34:30.892Z,26.70
2022-11-29T22:36:59.319Z,26.60
2022-11-29T22:39:27.928Z,26.50
2022-11-29T22:41:56.315Z,26.40
2022-11-29T22:44:25.595Z,26.30
2022-11-29T22:46:54.380Z,26.30
2022-11-29T22:49:23.024Z,26.30
2022-11-29T22:51:51.629Z,26.30
2022-11-29T22:54:20.031Z,26.20
2022-11-29T22:56:48.923Z,26.30
2022-11-29T22:59:17.330Z,26.50
2022-11-29T23:01:45.753Z,26.40
2022-11-29T23:04:14.339Z,26.30
2022-11-29T23:06:45.352Z,26.20
2022-11-29T23:09:18.164Z,26.20
2022-11-29T23:11:50.280Z,26.10
2022-11-29T23:14:19.735Z,26.10
2022-11-29T23:16:47.874Z,26.00
2022-11-29T23:19:17.972Z,26.00
2022-11-29T23:21:46.599Z,26.20
2022-11-29T23:24:16.612Z,26.30
2022-11-29T23:26:48.230Z,26.20
2022-11-29T23:29:19.285Z,26.10
2022-11-29T23:31:49.471Z,26.00
2022-11-29T23:34:17.928Z,26.00
2022-11-29T23:36:51.339Z,25.90
2022-11-29T23:39:21.508Z,25.90
2022-11-29T23:41:49.840Z,25.90
2022-11-29T23:44:18.082Z,25.90
2022-11-29T23:46:46.932Z,26.10
2022-11-29T23:49:15.502Z,26.20
2022-11-29T23:51:43.850Z,26.10
2022-11-29T23:54:12.088Z,26.00
2022-11-29T23:56:40.480Z,25.90
2022-11-29T23:59:08.628Z,25.80
